Time;durP1;ratioP1;P1;durP2;ratioP2;P2;SDS_P1;SDS_P2;PMS_P1;PMS_P2;Temp;Humidity;BMP_temperature;BMP_pressure;BME280_temperature;BME280_humidity;BME280_pressure;Samples;Min_cycle;Max_cycle;Signal;HPM_P1;HPM_P2
2023/10/05 00:03:23;;;;;;;5.40;3.13;;;;;6.90;97255.00;;;;8333252;28;20687;-63
2023/10/05 00:07:27;;;;;;;10.30;4.17;;;;;6.80;97238.00;;;;8331946;28;20210;-63
2023/10/05 00:11:30;;;;;;;10.83;4.40;;;;;6.80;97230.00;;;;8330498;28;20193;-63
2023/10/05 00:15:36;;;;;;;7.60;3.33;;;;;6.70;97232.00;;;;8332107;28;20221;-63
2023/10/05 00:19:40;;;;;;;8.47;3.97;;;;;6.50;97215.00;;;;8332410;28;20203;-63
2023/10/05 00:23:43;;;;;;;8.57;3.70;;;;;6.50;97213.00;;;;8331870;28;20229;-63
2023/10/05 00:27:51;;;;;;;8.80;3.87;;;;;6.60;97211.00;;;;8331749;28;20669;-63
2023/10/05 00:31:59;;;;;;;6.53;4.50;;;;;6.60;97213.00;;;;8332452;28;20661;-63
2023/10/05 00:36:05;;;;;;;8.77;3.70;;;;;6.50;97214.00;;;;8331648;28;20247;-63
2023/10/05 00:40:11;;;;;;;7.73;3.70;;;;;6.50;97207.00;;;;8332407;28;20193;-63
2023/10/05 00:44:14;;;;;;;113.03;7.17;;;;;6.50;97212.00;;;;8332477;28;20236;-64
2023/10/05 00:48:29;;;;;;;5.90;3.33;;;;;6.60;97204.00;;;;8331700;28;20279;-63
2023/10/05 00:52:34;;;;;;;5.60;3.43;;;;;6.60;97202.00;;;;8332446;28;20253;-63
2023/10/05 00:56:40;;;;;;;9.00;3.63;;;;;6.50;97195.00;;;;8330564;28;20221;-63
2023/10/05 01:00:50;;;;;;;3.93;3.20;;;;;6.40;97193.00;;;;8332161;28;20236;-63
2023/10/05 01:04:57;;;;;;;10.13;3.77;;;;;6.20;97191.00;;;;8331033;28;20300;-63
2023/10/05 01:09:04;;;;;;;4.97;2.93;;;;;6.10;97193.00;;;;8331250;28;20194;-63
2023/10/05 01:13:23;;;;;;;8.23;3.70;;;;;6.10;97184.00;;;;8330872;28;20200;-63
2023/10/05 01:17:27;;;;;;;4.30;3.47;;;;;6.10;97187.00;;;;8329481;28;20743;-63
2023/10/05 01:21:34;;;;;;;5.80;3.47;;;;;6.20;97190.00;;;;8331004;28;20198;-62
2023/10/05 01:25:39;;;;;;;6.60;3.17;;;;;6.20;97201.00;;;;8331435;28;20237;-63
2023/10/05 01:29:42;;;;;;;4.57;2.40;;;;;6.30;97208.00;;;;8331131;28;20607;-63
2023/10/05 01:33:46;;;;;;;20.97;3.03;;;;;6.30;97200.00;;;;8331647;28;20260;-63
2023/10/05 01:37:52;;;;;;;4.93;3.37;;;;;6.30;97201.00;;;;8331120;28;20312;-63
2023/10/05 01:41:59;;;;;;;4.63;3.20;;;;;6.30;97203.00;;;;8330830;28;20205;-63
2023/10/05 01:46:04;;;;;;;42.67;4.63;;;;;6.20;97196.00;;;;8331093;28;20258;-62
2023/10/05 01:50:14;;;;;;;22.33;3.20;;;;;6.20;97193.00;;;;8330957;28;20223;-62
2023/10/05 01:54:17;;;;;;;3.53;2.80;;;;;6.20;97187.00;;;;8330324;28;20281;-62
2023/10/05 01:58:27;;;;;;;7.73;3.57;;;;;6.10;97193.00;;;;8331876;28;20612;-62
2023/10/05 02:02:30;;;;;;;5.27;3.40;;;;;6.00;97190.00;;;;8330829;28;20283;-62
2023/10/05 02:06:40;;;;;;;6.10;3.43;;;;;6.00;97191.00;;;;8330724;28;20189;-63
2023/10/05 02:10:46;;;;;;;9.77;3.37;;;;;6.00;97174.00;;;;8333483;28;20197;-63
2023/10/05 02:14:54;;;;;;;9.97;3.13;;;;;5.90;97172.00;;;;8336211;28;20189;-63
2023/10/05 02:18:58;;;;;;;8.90;3.47;;;;;5.80;97171.00;;;;8336664;28;20309;-63
2023/10/05 02:23:15;;;;;;;7.40;3.70;;;;;5.70;97166.00;;;;8336298;28;20635;-63
2023/10/05 02:27:18;;;;;;;7.10;3.70;;;;;5.80;97167.00;;;;8336151;28;20275;-63
2023/10/05 02:31:23;;;;;;;5.67;3.40;;;;;5.90;97151.00;;;;8335928;28;20247;-63
2023/10/05 02:35:30;;;;;;;6.67;3.70;;;;;5.80;97152.00;;;;8335920;28;20370;-63
2023/10/05 02:39:36;;;;;;;9.30;3.83;;;;;5.80;97157.00;;;;8335683;28;20197;-63
2023/10/05 02:43:39;;;;;;;8.40;4.33;;;;;5.70;97151.00;;;;8335135;28;20197;-63
2023/10/05 02:47:44;;;;;;;9.93;3.80;;;;;5.80;97155.00;;;;8335885;28;20198;-63
2023/10/05 02:51:47;;;;;;;4.27;3.30;;;;;5.90;97154.00;;;;8335153;28;20211;-63
2023/10/05 02:55:54;;;;;;;4.37;3.80;;;;;5.90;97152.00;;;;8335004;28;20227;-63
2023/10/05 02:59:58;;;;;;;9.53;4.30;;;;;6.00;97146.00;;;;8334812;28;20204;-63
2023/10/05 03:04:09;;;;;;;6.27;3.97;;;;;6.10;97141.00;;;;8367112;22;20696;-64
2023/10/05 03:08:12;;;;;;;9.40;4.00;;;;;6.10;97148.00;;;;8346494;28;20193;-63
2023/10/05 03:12:20;;;;;;;8.57;3.60;;;;;6.10;97152.00;;;;8350740;28;20775;-63
2023/10/05 03:16:28;;;;;;;5.10;3.60;;;;;6.20;97149.00;;;;8351915;28;20227;-63
2023/10/05 03:20:36;;;;;;;5.43;3.77;;;;;6.20;97142.00;;;;8355950;28;20977;-63
2023/10/05 03:24:42;;;;;;;9.83;3.93;;;;;6.10;97145.00;;;;8348600;28;20745;-63
2023/10/05 03:28:45;;;;;;;6.17;4.00;;;;;6.00;97161.00;;;;8359476;28;20238;-63
2023/10/05 03:32:50;;;;;;;4.67;3.60;;;;;6.00;97157.00;;;;8351590;28;20780;-63
2023/10/05 03:36:55;;;;;;;4.67;3.60;;;;;6.10;97144.00;;;;8354139;28;20235;-63
2023/10/05 03:41:03;;;;;;;5.23;4.10;;;;;6.20;97154.00;;;;8358146;28;20235;-63
2023/10/05 03:45:09;;;;;;;6.90;3.83;;;;;6.20;97152.00;;;;8359064;28;20233;-63
2023/10/05 03:49:15;;;;;;;5.27;3.43;;;;;6.10;97146.00;;;;8360635;28;20199;-63
2023/10/05 03:53:20;;;;;;;4.40;3.33;;;;;6.00;97134.00;;;;8351838;28;20692;-63
2023/10/05 03:57:24;;;;;;;3.77;3.10;;;;;5.90;97138.00;;;;8346771;28;20236;-64
2023/10/05 04:01:27;;;;;;;6.43;3.73;;;;;5.90;97137.00;;;;8350725;28;20307;-64
2023/10/05 04:05:32;;;;;;;7.70;4.00;;;;;5.90;97143.00;;;;8382395;28;20673;-64
2023/10/05 04:09:37;;;;;;;8.10;3.40;;;;;5.80;97152.00;;;;8376484;28;20231;-63
2023/10/05 04:13:40;;;;;;;7.27;3.53;;;;;5.90;97147.00;;;;8373888;28;20218;-64
2023/10/05 04:17:43;;;;;;;5.27;3.47;;;;;5.90;97146.00;;;;8375554;28;20255;-63
2023/10/05 04:21:47;;;;;;;7.40;3.60;;;;;5.90;97145.00;;;;8381580;28;20803;-62
2023/10/05 04:25:54;;;;;;;7.13;3.67;;;;;5.90;97143.00;;;;8375194;28;20644;-63
2023/10/05 04:29:58;;;;;;;9.93;3.20;;;;;5.90;97148.00;;;;8367716;28;20776;-63
2023/10/05 04:34:05;;;;;;;5.70;3.60;;;;;5.90;97157.00;;;;8374857;28;20200;-63
2023/10/05 04:38:10;;;;;;;4.77;3.40;;;;;5.90;97151.00;;;;8376060;28;20341;-61
2023/10/05 04:42:16;;;;;;;6.37;3.40;;;;;5.90;97154.00;;;;8372926;28;20952;-62
2023/10/05 04:46:19;;;;;;;10.10;3.80;;;;;5.90;97147.00;;;;8376329;28;20210;-62
2023/10/05 04:50:22;;;;;;;6.27;3.70;;;;;5.90;97159.00;;;;8376531;28;20886;-61
2023/10/05 04:54:26;;;;;;;6.73;3.37;;;;;5.80;97157.00;;;;8376856;28;20292;-62
2023/10/05 04:58:43;;;;;;;8.50;4.20;;;;;5.80;97164.00;;;;8370908;28;20224;-62
2023/10/05 05:03:05;;;;;;;10.00;4.10;;;;;5.90;97156.00;;;;8376413;28;20318;-62
2023/10/05 05:07:08;;;;;;;6.57;4.60;;;;;5.90;97153.00;;;;8378015;28;20210;-62
2023/10/05 05:11:19;;;;;;;7.30;3.37;;;;;5.90;97151.00;;;;8376408;28;20261;-62
2023/10/05 05:15:24;;;;;;;7.53;3.90;;;;;6.00;97152.00;;;;8376031;28;20282;-61
2023/10/05 05:19:28;;;;;;;6.33;3.47;;;;;6.00;97157.00;;;;8381102;28;20762;-61
2023/10/05 05:23:31;;;;;;;6.77;3.57;;;;;5.90;97158.00;;;;8377440;28;20664;-62
2023/10/05 05:27:34;;;;;;;7.93;3.47;;;;;5.90;97166.00;;;;8377382;28;20199;-62
2023/10/05 05:31:39;;;;;;;10.20;3.77;;;;;5.90;97164.00;;;;8377611;28;20724;-62
2023/10/05 05:35:43;;;;;;;4.53;3.37;;;;;5.90;97159.00;;;;8389121;28;20192;-61
2023/10/05 05:39:46;;;;;;;9.77;3.80;;;;;5.90;97160.00;;;;8396408;28;20223;-61
2023/10/05 05:43:49;;;;;;;5.90;3.50;;;;;5.90;97171.00;;;;8398861;28;20667;-61
2023/10/05 05:47:54;;;;;;;6.03;3.83;;;;;5.90;97174.00;;;;8402683;28;20242;-61
2023/10/05 05:51:58;;;;;;;6.87;3.70;;;;;5.90;97175.00;;;;8403764;28;20255;-62
2023/10/05 05:56:03;;;;;;;8.03;3.80;;;;;5.90;97182.00;;;;8403095;28;20223;-62
2023/10/05 06:00:12;;;;;;;5.50;3.40;;;;;6.00;97179.00;;;;8402859;28;20279;-62
2023/10/05 06:04:17;;;;;;;8.33;3.70;;;;;6.10;97185.00;;;;8403261;28;20610;-62
2023/10/05 06:08:20;;;;;;;5.43;3.40;;;;;6.30;97193.00;;;;8403318;28;20191;-62
2023/10/05 06:12:23;;;;;;;7.97;3.83;;;;;6.50;97187.00;;;;8402605;28;20599;-62
2023/10/05 06:16:28;;;;;;;7.07;3.10;;;;;6.80;97191.00;;;;8402299;28;20302;-62
2023/10/05 06:20:32;;;;;;;6.83;3.47;;;;;7.00;97184.00;;;;8402404;28;20214;-61
2023/10/05 06:24:40;;;;;;;6.37;4.53;;;;;7.30;97174.00;;;;8402036;28;20283;-62
2023/10/05 06:28:44;;;;;;;7.67;4.57;;;;;7.70;97166.00;;;;8402098;28;20191;-62
2023/10/05 06:32:48;;;;;;;5.33;4.03;;;;;8.00;97162.00;;;;8402019;28;20192;-62
2023/10/05 06:36:53;;;;;;;7.93;4.17;;;;;8.20;97160.00;;;;8401862;28;20668;-61
2023/10/05 06:40:56;;;;;;;11.23;4.20;;;;;8.40;97163.00;;;;8401972;28;20286;-61
2023/10/05 06:44:59;;;;;;;8.27;4.07;;;;;8.60;97181.00;;;;8402106;28;20294;-62
2023/10/05 06:49:05;;;;;;;7.50;3.97;;;;;8.70;97165.00;;;;8401120;28;20196;-62
2023/10/05 06:53:11;;;;;;;8.87;3.97;;;;;8.90;97159.00;;;;8401724;28;20195;-62
2023/10/05 06:57:14;;;;;;;6.60;3.90;;;;;9.20;97163.00;;;;8399988;28;20220;-62
2023/10/05 07:01:20;;;;;;;8.80;4.20;;;;;9.40;97171.00;;;;8400609;28;20620;-62
2023/10/05 07:05:24;;;;;;;9.10;5.47;;;;;9.60;97183.00;;;;8400488;28;20257;-61
2023/10/05 07:09:28;;;;;;;10.17;4.27;;;;;9.80;97197.00;;;;8400810;28;20188;-62
2023/10/05 07:13:31;;;;;;;9.97;3.57;;;;;10.00;97204.00;;;;8400133;28;20286;-62
2023/10/05 07:17:34;;;;;;;8.15;4.00;;;;;10.30;97201.00;;;;8401365;28;20706;-62
2023/10/05 07:21:38;;;;;;;5.80;3.77;;;;;10.60;97191.00;;;;8400645;28;20640;-62
2023/10/05 07:25:42;;;;;;;5.40;3.72;;;;;10.90;97206.00;;;;8400223;28;20283;-63
2023/10/05 07:29:46;;;;;;;5.05;3.75;;;;;11.10;97197.00;;;;8399184;28;20251;-63
2023/10/05 07:33:49;;;;;;;8.98;3.70;;;;;11.30;97195.00;;;;8400286;28;20232;-64
2023/10/05 07:37:53;;;;;;;4.20;3.40;;;;;11.50;97200.00;;;;8398940;28;20226;-64
2023/10/05 07:41:59;;;;;;;9.82;3.85;;;;;11.60;97189.00;;;;8399099;28;20237;-64
2023/10/05 07:46:04;;;;;;;7.13;3.53;;;;;11.90;97197.00;;;;8399489;28;20228;-64
2023/10/05 07:50:10;;;;;;;7.47;3.42;;;;;12.00;97205.00;;;;8399736;28;20201;-63
2023/10/05 07:54:13;;;;;;;7.53;3.72;;;;;12.20;97211.00;;;;8400025;28;20213;-64
2023/10/05 07:58:19;;;;;;;5.82;3.47;;;;;12.30;97222.00;;;;8399107;28;20253;-64
2023/10/05 08:02:22;;;;;;;11.55;3.53;;;;;12.70;97223.00;;;;8398852;28;20645;-64
2023/10/05 08:06:25;;;;;;;8.70;3.55;;;;;13.20;97239.00;;;;8399382;28;20206;-64
2023/10/05 08:10:28;;;;;;;13.90;4.32;;;;;13.70;97232.00;;;;8399090;28;20657;-64
2023/10/05 08:14:33;;;;;;;12.07;4.25;;;;;14.10;97236.00;;;;8399033;28;20196;-68
2023/10/05 08:18:38;;;;;;;8.60;3.30;;;;;14.40;97248.00;;;;8398043;28;20266;-68
2023/10/05 08:22:41;;;;;;;9.65;3.83;;;;;14.80;97240.00;;;;8399189;28;20192;-68
2023/10/05 08:26:45;;;;;;;11.32;3.25;;;;;15.40;97244.00;;;;8431457;28;20230;-67
2023/10/05 08:31:05;;;;;;;11.05;2.90;;;;;15.90;97249.00;;;;8432088;28;20313;-66
2023/10/05 08:35:14;;;;;;;9.77;2.45;;;;;16.30;97259.00;;;;8431781;28;20191;-66
2023/10/05 08:39:25;;;;;;;5.18;2.50;;;;;16.50;97248.00;;;;8431661;28;20218;-66
2023/10/05 08:43:31;;;;;;;11.75;2.70;;;;;16.60;97255.00;;;;8431354;28;20191;-66
2023/10/05 08:47:36;;;;;;;7.82;2.88;;;;;16.70;97259.00;;;;8432810;28;20521;-65
2023/10/05 08:51:41;;;;;;;7.13;2.60;;;;;16.90;97253.00;;;;8430722;28;20195;-67
2023/10/05 08:55:58;;;;;;;7.15;2.35;;;;;17.20;97254.00;;;;8430291;28;20183;-67
2023/10/05 09:00:05;;;;;;;5.05;2.53;;;;;17.20;97253.00;;;;8429888;28;20251;-66
2023/10/05 09:04:29;;;;;;;7.20;2.92;;;;;17.10;97257.00;;;;8429904;28;20548;-67
2023/10/05 09:08:42;;;;;;;5.95;2.33;;;;;17.10;97244.00;;;;8431486;28;20179;-67
2023/10/05 09:12:46;;;;;;;5.13;2.40;;;;;17.10;97255.00;;;;8430529;28;20206;-67
2023/10/05 09:17:05;;;;;;;7.05;2.47;;;;;17.40;97244.00;;;;8431714;28;20233;-67
2023/10/05 09:21:12;;;;;;;8.65;2.38;;;;;17.60;97261.00;;;;8437133;28;20226;-67
2023/10/05 09:25:17;;;;;;;6.40;2.65;;;;;17.80;97270.00;;;;8437858;28;20281;-68
2023/10/05 09:29:22;;;;;;;6.80;2.80;;;;;18.00;97258.00;;;;8437349;28;20631;-67
2023/10/05 09:33:27;;;;;;;5.15;2.63;;;;;18.20;97267.00;;;;8437419;28;20312;-68
2023/10/05 09:37:36;;;;;;;8.40;3.15;;;;;18.60;97262.00;;;;8437105;28;20671;-69
2023/10/05 09:41:39;;;;;;;8.73;3.58;;;;;18.80;97274.00;;;;8437126;28;20705;-65
2023/10/05 09:45:44;;;;;;;6.90;3.10;;;;;19.10;97267.00;;;;8436368;28;20194;-66
2023/10/05 09:49:50;;;;;;;11.63;3.20;;;;;19.60;97270.00;;;;8435981;28;20671;-64
2023/10/05 09:53:59;;;;;;;9.23;3.75;;;;;19.90;97263.00;;;;8436325;28;20192;-65
2023/10/05 09:58:12;;;;;;;4.97;2.60;;;;;20.10;97266.00;;;;8436119;28;20314;-65
2023/10/05 10:02:17;;;;;;;8.98;3.03;;;;;20.40;97261.00;;;;8436727;28;20537;-64
2023/10/05 10:06:28;;;;;;;8.73;3.10;;;;;20.40;97261.00;;;;8436099;28;20187;-65
2023/10/05 10:10:33;;;;;;;7.35;3.25;;;;;20.40;97243.00;;;;8436072;28;20203;-65
2023/10/05 10:14:36;;;;;;;8.48;3.65;;;;;20.50;97249.00;;;;8436528;28;20712;-65
2023/10/05 10:18:39;;;;;;;5.43;2.80;;;;;20.50;97258.00;;;;8434849;28;20222;-65
2023/10/05 10:22:50;;;;;;;7.85;3.50;;;;;20.40;97259.00;;;;8435856;28;20390;-63
2023/10/05 10:27:08;;;;;;;10.25;3.58;;;;;20.20;97253.00;;;;8435236;28;20179;-64
2023/10/05 10:31:19;;;;;;;8.35;3.13;;;;;20.10;97247.00;;;;8432660;28;20186;-65
2023/10/05 10:35:28;;;;;;;10.50;3.58;;;;;20.10;97254.00;;;;8435060;28;20535;-65
2023/10/05 10:39:33;;;;;;;14.77;3.75;;;;;20.10;97252.00;;;;8433968;28;20262;-65
2023/10/05 10:43:37;;;;;;;9.02;3.33;;;;;20.00;97240.00;;;;8435226;28;20191;-65
2023/10/05 10:47:46;;;;;;;13.07;4.57;;;;;19.90;97236.00;;;;8435518;28;20196;-64
2023/10/05 10:51:52;;;;;;;9.13;3.33;;;;;19.60;97239.00;;;;8434980;28;20195;-65
2023/10/05 10:56:03;;;;;;;14.55;3.85;;;;;19.50;97234.00;;;;8434965;28;20286;-65
2023/10/05 11:04:36;;;;;;;7.57;3.13;;;;;19.20;97224.00;;;;8434609;28;20215;-64
2023/10/05 11:09:00;;;;;;;11.27;4.20;;;;;19.20;97237.00;;;;8428680;28;20198;-65
2023/10/05 11:13:14;;;;;;;11.52;4.03;;;;;19.00;97219.00;;;;8432940;28;20192;-65
2023/10/05 11:17:31;;;;;;;11.52;4.00;;;;;19.00;97214.00;;;;8433510;28;20266;-65
2023/10/05 11:21:43;;;;;;;8.10;3.85;;;;;19.10;97229.00;;;;8434300;28;20606;-64
2023/10/05 11:25:47;;;;;;;10.80;3.50;;;;;19.30;97222.00;;;;8431791;28;20176;-64
2023/10/05 11:30:18;;;;;;;13.02;4.28;;;;;19.20;97230.00;;;;8433119;28;20179;-64
2023/10/05 11:34:39;;;;;;;8.07;3.83;;;;;19.10;97221.00;;;;8433430;28;20180;-65
2023/10/05 11:39:03;;;;;;;8.23;4.20;;;;;19.10;97215.00;;;;8432950;28;20255;-65
2023/10/05 11:43:13;;;;;;;14.02;4.30;;;;;19.20;97225.00;;;;8432744;28;20210;-65
2023/10/05 11:47:32;;;;;;;13.68;4.40;;;;;19.50;97216.00;;;;8433362;28;20195;-65
2023/10/05 11:51:41;;;;;;;13.13;5.22;;;;;19.80;97221.00;;;;8432798;28;20187;-65
2023/10/05 11:55:48;;;;;;;10.38;4.53;;;;;19.90;97219.00;;;;8433208;28;20668;-65
2023/10/05 11:59:59;;;;;;;18.50;5.78;;;;;20.00;97233.00;;;;8432656;28;20219;-65
2023/10/05 12:04:04;;;;;;;12.95;4.88;;;;;20.20;97226.00;;;;8432390;28;20227;-65
2023/10/05 12:08:12;;;;;;;17.08;5.75;;;;;20.20;97226.00;;;;8432475;28;20195;-65
2023/10/05 12:12:18;;;;;;;16.60;5.35;;;;;20.20;97223.00;;;;8432889;28;20271;-65
2023/10/05 12:16:21;;;;;;;13.95;4.35;;;;;20.30;97230.00;;;;8433192;28;20203;-65
2023/10/05 12:20:27;;;;;;;11.02;4.47;;;;;20.40;97238.00;;;;8432079;28;20305;-65
2023/10/05 12:24:33;;;;;;;14.52;5.25;;;;;20.40;97231.00;;;;8432047;28;20195;-65
2023/10/05 12:28:36;;;;;;;13.80;4.45;;;;;20.40;97220.00;;;;8432110;28;20224;-65
2023/10/05 12:32:39;;;;;;;10.75;4.40;;;;;20.30;97217.00;;;;8432565;28;20624;-65
2023/10/05 12:36:49;;;;;;;13.88;5.13;;;;;20.10;97223.00;;;;8431190;28;20191;-65
2023/10/05 12:40:54;;;;;;;8.02;4.28;;;;;20.10;97233.00;;;;8432367;28;20254;-66
2023/10/05 12:45:01;;;;;;;12.68;4.70;;;;;20.00;97219.00;;;;8431592;28;20390;-66
2023/10/05 12:49:07;;;;;;;9.10;4.05;;;;;19.90;97210.00;;;;8431526;28;20195;-65
2023/10/05 12:53:11;;;;;;;12.80;4.70;;;;;19.80;97220.00;;;;8430852;28;20183;-67
2023/10/05 12:57:16;;;;;;;13.90;5.22;;;;;19.70;97212.00;;;;8431135;28;20192;-65
2023/10/05 13:01:26;;;;;;;10.32;4.75;;;;;19.70;97210.00;;;;8431668;28;20227;-65
2023/10/05 13:05:31;;;;;;;17.00;5.25;;;;;19.90;97210.00;;;;8431432;28;20192;-65
2023/10/05 13:09:39;;;;;;;13.93;4.70;;;;;19.90;97218.00;;;;8432444;28;20637;-66
2023/10/05 13:13:43;;;;;;;11.15;4.50;;;;;19.70;97212.00;;;;8430311;28;20197;-66
2023/10/05 13:17:47;;;;;;;11.25;4.60;;;;;19.70;97213.00;;;;8430115;28;20187;-66
2023/10/05 13:21:50;;;;;;;16.58;5.57;;;;;19.70;97210.00;;;;8430584;28;20602;-66
2023/10/05 13:25:55;;;;;;;13.90;4.93;;;;;19.70;97214.00;;;;8431350;28;20498;-67
2023/10/05 13:30:00;;;;;;;11.32;4.70;;;;;19.60;97227.00;;;;8430988;28;20210;-67
2023/10/05 13:34:03;;;;;;;16.10;5.32;;;;;19.40;97229.00;;;;8431315;28;20282;-67
2023/10/05 13:38:08;;;;;;;13.57;4.88;;;;;19.30;97226.00;;;;8431069;28;20195;-67
2023/10/05 13:42:11;;;;;;;13.40;5.90;;;;;19.20;97236.00;;;;8428985;28;20226;-67
2023/10/05 13:46:19;;;;;;;10.65;5.03;;;;;19.20;97223.00;;;;8430528;28;20282;-67
2023/10/05 13:50:23;;;;;;;16.27;5.18;;;;;19.00;97224.00;;;;8430983;28;20238;-67
2023/10/05 13:54:26;;;;;;;12.27;4.68;;;;;19.00;97214.00;;;;8431159;28;20282;-67
2023/10/05 13:58:31;;;;;;;14.38;5.53;;;;;18.90;97219.00;;;;8430676;28;20646;-67
2023/10/05 14:02:37;;;;;;;17.23;5.20;;;;;18.80;97213.00;;;;8429044;28;20227;-67
2023/10/05 14:06:41;;;;;;;13.98;4.95;;;;;18.70;97227.00;;;;8434870;28;20222;-67
2023/10/05 14:10:46;;;;;;;17.50;5.57;;;;;18.50;97221.00;;;;8435714;28;20200;-67
2023/10/05 14:14:49;;;;;;;15.77;5.35;;;;;18.40;97223.00;;;;8436334;28;20196;-67
2023/10/05 14:18:55;;;;;;;11.15;4.35;;;;;18.20;97220.00;;;;8436266;28;20612;-67
2023/10/05 14:23:00;;;;;;;11.93;5.07;;;;;18.10;97220.00;;;;8436076;28;20263;-66
2023/10/05 14:27:05;;;;;;;15.13;5.47;;;;;17.90;97228.00;;;;8435955;28;20506;-65
2023/10/05 14:31:08;;;;;;;23.33;5.90;;;;;17.90;97222.00;;;;8436214;28;20758;-65
2023/10/05 14:35:20;;;;;;;80.10;39.03;;;;;17.80;97223.00;;;;8431932;28;20191;-66
2023/10/05 14:39:23;;;;;;;21.77;15.73;;;;;17.80;97214.00;;;;8432841;28;20214;-66
2023/10/05 14:43:30;;;;;;;15.38;7.97;;;;;17.70;97217.00;;;;8435366;28;20275;-66
2023/10/05 14:47:34;;;;;;;14.27;6.10;;;;;17.70;97214.00;;;;8435151;28;20354;-65
2023/10/05 14:51:40;;;;;;;25.67;17.23;;;;;17.70;97221.00;;;;8426413;28;20198;-65
2023/10/05 14:55:45;;;;;;;14.38;5.30;;;;;17.60;97225.00;;;;8434784;28;20671;-64
2023/10/05 14:59:50;;;;;;;12.18;5.55;;;;;17.50;97230.00;;;;8434195;28;20223;-64
2023/10/05 15:03:53;;;;;;;18.58;5.65;;;;;17.40;97216.00;;;;8434985;28;20251;-65
2023/10/05 15:07:59;;;;;;;17.10;6.05;;;;;17.30;97210.00;;;;8433945;28;20196;-63
2023/10/05 15:12:04;;;;;;;20.15;9.68;;;;;17.30;97205.00;;;;8433883;28;20191;-65
2023/10/05 15:16:09;;;;;;;15.13;6.78;;;;;17.30;97217.00;;;;8432930;28;20230;-66
2023/10/05 15:20:14;;;;;;;14.98;5.45;;;;;17.30;97211.00;;;;8433628;28;20342;-67
2023/10/05 15:24:19;;;;;;;21.80;6.28;;;;;17.30;97206.00;;;;8433351;28;20202;-67
2023/10/05 15:28:22;;;;;;;23.73;12.57;;;;;17.20;97199.00;;;;8433797;28;20524;-66
2023/10/05 15:32:26;;;;;;;11.85;5.45;;;;;17.20;97193.00;;;;8434123;28;20604;-67
2023/10/05 15:36:30;;;;;;;11.13;5.18;;;;;17.20;97198.00;;;;8433192;28;20199;-66
2023/10/05 15:40:35;;;;;;;51.20;25.73;;;;;17.00;97220.00;;;;8432949;28;20222;-66
2023/10/05 15:44:39;;;;;;;21.80;8.82;;;;;16.90;97236.00;;;;8433010;28;20274;-66
2023/10/05 15:48:42;;;;;;;28.73;13.50;;;;;16.80;97263.00;;;;8432767;28;20635;-66
2023/10/05 15:52:48;;;;;;;25.42;11.93;;;;;16.70;97249.00;;;;8438274;28;20286;-66
2023/10/05 15:56:59;;;;;;;20.50;9.63;;;;;16.60;97259.00;;;;8432755;28;20190;-66
2023/10/05 16:01:03;;;;;;;15.18;5.13;;;;;16.50;97259.00;;;;8432248;28;20310;-66
2023/10/05 16:05:07;;;;;;;14.85;5.78;;;;;16.50;97252.00;;;;8433223;28;20310;-67
2023/10/05 16:09:10;;;;;;;15.95;5.03;;;;;16.40;97260.00;;;;8432461;28;20278;-66
2023/10/05 16:13:15;;;;;;;19.27;6.10;;;;;16.40;97248.00;;;;8430760;28;20299;-65
2023/10/05 16:17:18;;;;;;;14.88;6.10;;;;;16.40;97236.00;;;;8431480;28;20192;-66
2023/10/05 16:21:26;;;;;;;21.48;6.03;;;;;16.40;97234.00;;;;8430555;28;20238;-66
2023/10/05 16:25:29;;;;;;;16.88;6.18;;;;;16.30;97239.00;;;;8430687;28;20183;-65
2023/10/05 16:29:34;;;;;;;15.55;5.78;;;;;16.30;97231.00;;;;8429593;28;20513;-66
2023/10/05 16:33:37;;;;;;;14.60;6.20;;;;;16.20;97228.00;;;;8430609;28;20273;-66
2023/10/05 16:37:42;;;;;;;13.35;5.65;;;;;16.10;97215.00;;;;8430164;28;20198;-65
2023/10/05 16:41:46;;;;;;;20.90;7.18;;;;;16.00;97213.00;;;;8430268;28;20219;-65
2023/10/05 16:45:51;;;;;;;35.13;12.00;;;;;15.90;97209.00;;;;8430326;28;20532;-65
2023/10/05 16:49:55;;;;;;;20.05;6.45;;;;;15.80;97196.00;;;;8430296;28;20203;-65
2023/10/05 16:53:58;;;;;;;17.42;6.63;;;;;15.60;97195.00;;;;8429397;28;20226;-65
2023/10/05 16:58:01;;;;;;;16.05;6.07;;;;;15.50;97191.00;;;;8430193;28;20198;-65
2023/10/05 17:02:08;;;;;;;19.05;5.80;;;;;15.30;97192.00;;;;8430169;28;20315;-65
2023/10/05 17:06:11;;;;;;;15.63;6.07;;;;;15.30;97233.00;;;;8429942;28;20705;-65
2023/10/05 17:10:15;;;;;;;12.93;5.05;;;;;15.30;97253.00;;;;8429919;28;20203;-65
2023/10/05 17:14:18;;;;;;;15.82;6.15;;;;;15.30;97262.00;;;;8428307;28;20282;-65
2023/10/05 17:18:23;;;;;;;17.20;6.20;;;;;15.20;97260.00;;;;8429762;28;20210;-66
2023/10/05 17:22:27;;;;;;;17.17;6.35;;;;;15.20;97271.00;;;;8429327;28;20225;-66
2023/10/05 17:26:31;;;;;;;17.20;5.32;;;;;15.20;97271.00;;;;8430419;28;20588;-66
2023/10/05 17:30:34;;;;;;;16.27;5.97;;;;;15.10;97276.00;;;;8429162;28;20620;-66
2023/10/05 17:34:38;;;;;;;17.15;5.63;;;;;15.00;97270.00;;;;8430038;28;20635;-67
2023/10/05 17:38:42;;;;;;;27.20;6.70;;;;;14.90;97281.00;;;;8428729;28;20625;-66
2023/10/05 17:42:45;;;;;;;16.88;5.60;;;;;14.90;97281.00;;;;8435817;28;20251;-66
2023/10/05 17:46:48;;;;;;;20.50;6.28;;;;;14.80;97281.00;;;;8435943;28;20287;-65
2023/10/05 17:50:54;;;;;;;18.73;5.68;;;;;14.70;97284.00;;;;8435299;28;20270;-65
2023/10/05 17:54:57;;;;;;;17.65;5.95;;;;;14.60;97275.00;;;;8435114;28;20644;-66
2023/10/05 17:59:00;;;;;;;18.40;6.13;;;;;14.50;97274.00;;;;8435259;28;20199;-66
2023/10/05 18:03:06;;;;;;;16.85;6.05;;;;;14.50;97285.00;;;;8435529;28;20568;-66
2023/10/05 18:07:10;;;;;;;15.63;5.68;;;;;14.40;97285.00;;;;8434617;28;20274;-66
2023/10/05 18:11:14;;;;;;;16.02;6.50;;;;;14.40;97287.00;;;;8434898;28;20200;-66
2023/10/05 18:15:21;;;;;;;17.20;6.00;;;;;14.30;97287.00;;;;8435426;28;20289;-66
2023/10/05 18:19:26;;;;;;;20.20;7.45;;;;;14.30;97294.00;;;;8436304;28;20520;-66
2023/10/05 18:23:30;;;;;;;23.40;6.82;;;;;14.30;97306.00;;;;8434129;28;20363;-66
2023/10/05 18:27:35;;;;;;;15.75;6.65;;;;;14.30;97299.00;;;;8433797;28;20296;-66
2023/10/05 18:31:38;;;;;;;18.88;6.30;;;;;14.30;97298.00;;;;8433949;28;20227;-66
2023/10/05 18:35:41;;;;;;;16.70;6.70;;;;;14.30;97294.00;;;;8434314;28;20198;-66
2023/10/05 18:39:46;;;;;;;19.67;6.18;;;;;14.30;97295.00;;;;8435019;28;20245;-66
2023/10/05 18:43:49;;;;;;;19.90;6.10;;;;;14.20;97290.00;;;;8433637;28;20310;-66
2023/10/05 18:47:53;;;;;;;17.45;6.88;;;;;14.20;97291.00;;;;8434491;28;20564;-66
2023/10/05 18:51:57;;;;;;;16.65;6.25;;;;;14.10;97300.00;;;;8432325;28;20237;-66
2023/10/05 18:56:02;;;;;;;16.73;6.45;;;;;14.10;97295.00;;;;8433456;28;20198;-66
2023/10/05 19:00:09;;;;;;;15.77;6.22;;;;;13.90;97292.00;;;;8433976;28;20282;-66
2023/10/05 19:04:14;;;;;;;14.07;6.13;;;;;13.80;97295.00;;;;8433856;28;20257;-66
2023/10/05 19:08:17;;;;;;;19.42;6.35;;;;;13.60;97283.00;;;;8434692;28;20628;-66
2023/10/05 19:12:23;;;;;;;28.10;6.45;;;;;13.30;97287.00;;;;8433247;28;20663;-66
2023/10/05 19:16:26;;;;;;;17.10;6.20;;;;;13.10;97295.00;;;;8435033;28;20678;-66
2023/10/05 19:20:29;;;;;;;16.50;6.20;;;;;12.90;97286.00;;;;8433803;28;20198;-66
2023/10/05 19:24:33;;;;;;;19.00;5.97;;;;;12.80;97276.00;;;;8434262;28;20240;-66
2023/10/05 19:28:37;;;;;;;19.75;6.55;;;;;12.60;97276.00;;;;8424656;28;20226;-66
2023/10/05 19:32:42;;;;;;;15.70;5.25;;;;;12.30;97274.00;;;;8432830;28;20218;-66
2023/10/05 19:36:46;;;;;;;13.95;5.82;;;;;12.10;97278.00;;;;8432739;28;20202;-66
2023/10/05 19:40:49;;;;;;;17.90;5.90;;;;;11.90;97287.00;;;;8433954;28;20198;-66
2023/10/05 19:44:54;;;;;;;16.75;5.25;;;;;11.70;97285.00;;;;8432962;28;20260;-66
2023/10/05 19:48:57;;;;;;;20.63;6.63;;;;;11.50;97293.00;;;;8432952;28;20635;-66
2023/10/05 19:53:00;;;;;;;16.85;5.70;;;;;11.40;97291.00;;;;8433245;28;20477;-66
2023/10/05 19:57:03;;;;;;;15.75;6.95;;;;;11.30;97295.00;;;;8431313;28;20232;-67
2023/10/05 20:01:12;;;;;;;15.60;6.97;;;;;11.20;97299.00;;;;8432023;28;20202;-66
2023/10/05 20:05:16;;;;;;;32.05;9.07;;;;;11.10;97305.00;;;;8432665;28;20582;-66
2023/10/05 20:09:22;;;;;;;30.88;8.90;;;;;10.90;97309.00;;;;8432647;28;20234;-66
2023/10/05 20:13:25;;;;;;;29.95;8.15;;;;;10.80;97306.00;;;;8430992;28;20201;-65
2023/10/05 20:17:30;;;;;;;30.92;8.25;;;;;10.70;97313.00;;;;8433035;28;20261;-65
2023/10/05 20:21:33;;;;;;;33.95;8.02;;;;;10.60;97319.00;;;;8432564;28;20673;-65
2023/10/05 20:25:39;;;;;;;44.15;10.52;;;;;10.50;97306.00;;;;8432847;28;20278;-65
2023/10/05 20:29:43;;;;;;;28.98;8.30;;;;;10.40;97319.00;;;;8431917;28;20199;-65
2023/10/05 20:33:48;;;;;;;24.42;7.32;;;;;10.30;97319.00;;;;8432523;28;20520;-67